Skip Navigation Links
NOAA logo - Click to go to the NOAA homepage
NOAA's National Weather Service
Alaska Aviation Weather Unit
  NWS logo - Click to go to the NWS homepage
Left Navbar Graphic     21 AKDT = 05 GMT

   
NOAA is celebrating 200 years of science, service, and stewardship. Visit the NOAA 200th celebration Web site to learn more.
USA.gov is the U.S. Government's official Web portal to all Federal, state and local government Web resources and services.
Facebook
NWS on Facebook

Important Change Regarding the AAWU Web Presence

 

Over the last several months, the AAWU has been working to navigate its webpages to a nationally supported server. Security, as well as other needs, have necessitated the change.  In the process, we have made an effort to enhance the functionality of our website, as well as some of our products. As of June 27, 2017, aawu.arh.noaa.gov will be discontinued. The new AAWU web address is weather.gov/aawu. It is now live and will run in-parallel with the old site until it is discontinued. Please send any feedback or questions regarding the new webpages to nws.ar.aawu.webauthors@noaa.gov.  Thank you for your patience during this time of transition.
AAWU Home :: Display TAF Add Bookmark
METAR PAPO 242356Z AUTO 18020KT 3SM BR OVC006 05/03 A2988 RMK AO2 PK
 WND 18029/2257 SLP117 T00500033 10050 20044 57000=

SPECI PAPO 250018Z AUTO 18020KT 3SM BR SCT006 05/03 A2988 RMK AO2=

PAPO 250148Z AUTO 18019KT 3SM BR FEW007 06/03 A2988 RMK AO2=

METAR PAPO 250156Z AUTO 19019KT 3SM BR CLR 06/03 A2988 RMK AO2 SLPNO
     T00560033=

PAPO 250205Z AUTO 19020KT 3SM BR SCT007 06/03 A2987 RMK AO2=

METAR PAPO 250256Z AUTO 18020KT 3SM BR FEW090 05/03 A2988 RMK AO2
 SLP117 T00500033 53000=

METAR PAPO 250356Z AUTO 19019KT 3SM BR BKN095 04/03 A2988 RMK AO2 PK WND
     19026/0321 SLP116 T00440033=

SPECI PAPO 250442Z AUTO 19019KT 2 1/2SM BR FEW100 04/03 A2988 RMK
 AO2=

METAR PAPO 250456Z AUTO 19021KT 2 1/2SM BR FEW038 04/03 A2987 RMK AO2
     SLP115 T00440033=

PAPO 250503Z AUTO 19019KT 3SM BR BKN036 04/03 A2988 RMK AO2=


NOAA's National Weather Service
Alaska Aviation Weather Unit
6930 Sand Lake Road
Anchorage, AK 99502-1845
Disclaimer
Credits
Glossary
Privacy Policy
About Us
Career Opportunities
Contact AAWU Internet Services Site last modified: April, 17th 2012